Time;durP1;ratioP1;P1;durP2;ratioP2;P2;SDS_P1;SDS_P2;PMS_P1;PMS_P2;Temp;Humidity;BMP_temperature;BMP_pressure;BME280_temperature;BME280_humidity;BME280_pressure;Samples;Min_cycle;Max_cycle;Signal;HPM_P1;HPM_P2
2021/09/25 00:01:59;;;;;;;7.50;3.55;;;;;;;14.26;63.44;98491.44;4952326;29;20383;-82
2021/09/25 00:04:25;;;;;;;5.97;3.42;;;;;;;14.25;63.26;98489.00;4951861;29;20161;-82
2021/09/25 00:06:51;;;;;;;6.05;3.70;;;;;;;14.22;63.70;98487.69;4934910;29;20043;-83
2021/09/25 00:09:17;;;;;;;8.68;4.18;;;;;;;14.21;63.38;98486.06;4952357;29;20031;-82
2021/09/25 00:11:43;;;;;;;6.90;4.00;;;;;;;14.22;63.30;98489.63;4951614;29;20471;-83
2021/09/25 00:14:10;;;;;;;6.72;3.15;;;;;;;14.23;63.65;98486.56;4952553;29;20020;-83
2021/09/25 00:16:35;;;;;;;9.07;4.35;;;;;;;14.23;63.64;98489.31;4934491;29;20031;-84
2021/09/25 00:19:02;;;;;;;6.82;3.78;;;;;;;14.23;63.31;98494.03;4949945;29;20027;-81
2021/09/25 00:21:27;;;;;;;6.60;3.85;;;;;;;14.24;63.79;98490.94;4946977;29;20058;-82
2021/09/25 00:23:53;;;;;;;8.00;3.50;;;;;;;14.23;63.79;98488.50;4949500;29;20059;-82
2021/09/25 00:26:19;;;;;;;6.60;3.97;;;;;;;14.23;63.67;98489.31;4948896;29;20118;-84
2021/09/25 00:28:45;;;;;;;6.88;4.20;;;;;;;14.24;63.71;98485.41;4949889;29;20023;-83
2021/09/25 00:31:10;;;;;;;7.45;4.68;;;;;;;14.29;63.92;98488.03;4941535;29;20509;-84
2021/09/25 00:33:35;;;;;;;7.78;4.60;;;;;;;14.31;63.54;98486.91;4950356;29;20031;-82
2021/09/25 00:36:01;;;;;;;9.27;5.22;;;;;;;14.32;63.95;98485.75;4951168;29;20231;-85
2021/09/25 00:38:27;;;;;;;7.57;4.40;;;;;;;14.33;63.70;98488.19;4948011;29;20031;-84
2021/09/25 00:40:52;;;;;;;8.55;4.70;;;;;;;14.32;63.66;98481.03;4933427;29;20394;-82
2021/09/25 00:43:18;;;;;;;7.70;4.90;;;;;;;14.30;63.56;98488.84;4934432;29;20038;-83
2021/09/25 00:45:43;;;;;;;8.82;5.00;;;;;;;14.27;63.64;98492.22;4931096;29;20039;-79
2021/09/25 00:48:09;;;;;;;11.18;5.57;;;;;;;14.24;63.89;98484.63;4948405;29;20377;-80
2021/09/25 00:50:35;;;;;;;8.00;4.95;;;;;;;14.23;63.86;98481.03;4947900;29;20725;-81
2021/09/25 00:53:00;;;;;;;9.00;4.97;;;;;;;14.24;64.14;98479.09;4948680;29;20612;-82
2021/09/25 00:55:26;;;;;;;9.10;4.90;;;;;;;14.24;63.91;98485.41;4950281;29;20031;-83
2021/09/25 00:57:59;;;;;;;7.13;4.38;;;;;;;14.24;64.09;98485.41;4950525;29;20062;-83
2021/09/25 01:00:25;;;;;;;10.50;4.78;;;;;;;14.22;64.00;98484.13;4931767;29;20031;-84
2021/09/25 01:02:51;;;;;;;8.05;4.53;;;;;;;14.22;64.08;98481.38;4950657;29;20039;-82
2021/09/25 01:05:17;;;;;;;11.43;4.72;;;;;;;14.20;64.07;98484.44;4934685;29;20091;-82
2021/09/25 01:07:43;;;;;;;9.60;4.18;;;;;;;14.20;64.25;98478.91;4949620;29;20023;-82
2021/09/25 01:10:09;;;;;;;8.80;4.40;;;;;;;14.22;64.23;98478.59;4951792;29;20038;-81
2021/09/25 01:12:35;;;;;;;7.32;3.85;;;;;;;14.21;64.59;98483.28;4949031;29;20051;-80
2021/09/25 01:15:01;;;;;;;6.60;4.22;;;;;;;14.22;64.51;98482.16;4951008;29;20027;-83
2021/09/25 01:17:26;;;;;;;10.98;5.03;;;;;;;14.19;64.45;98482.00;4952175;29;20408;-83
2021/09/25 01:19:52;;;;;;;9.55;4.45;;;;;;;14.20;64.56;98476.16;4949344;29;20406;-81
2021/09/25 01:22:17;;;;;;;7.30;4.15;;;;;;;14.22;64.38;98479.41;4950306;29;20034;-79
2021/09/25 01:24:43;;;;;;;8.70;4.35;;;;;;;14.21;64.61;98483.28;4948872;29;20031;-80
2021/09/25 01:27:08;;;;;;;9.73;4.82;;;;;;;14.22;64.59;98465.63;4934753;29;20119;-81
2021/09/25 01:29:35;;;;;;;9.45;4.30;;;;;;;14.22;64.61;98473.09;4950376;29;20023;-77
2021/09/25 01:32:02;;;;;;;7.90;4.57;;;;;;;14.19;64.70;98474.53;4951227;29;20031;-84
2021/09/25 01:34:27;;;;;;;7.20;4.40;;;;;;;14.17;64.58;98482.31;4950864;29;20042;-84
2021/09/25 01:36:53;;;;;;;6.72;4.15;;;;;;;14.12;64.51;98485.22;4950806;29;20031;-81
2021/09/25 01:39:19;;;;;;;6.80;4.10;;;;;;;14.09;64.67;98483.91;4949774;29;20026;-83
2021/09/25 01:41:44;;;;;;;7.85;4.47;;;;;;;14.07;64.85;98485.34;4950322;29;20034;-83
2021/09/25 01:44:10;;;;;;;7.90;4.30;;;;;;;14.07;65.35;98485.34;4951076;29;20130;-82
2021/09/25 01:46:35;;;;;;;6.53;4.20;;;;;;;14.04;65.51;98484.06;4948026;29;20458;-84
2021/09/25 01:49:01;;;;;;;5.85;4.05;;;;;;;14.05;65.12;98495.91;4950060;29;20078;-83
2021/09/25 01:51:27;;;;;;;9.60;4.80;;;;;;;14.04;65.40;98486.00;4949673;28;20061;-78
2021/09/25 01:53:52;;;;;;;9.55;5.10;;;;;;;14.05;65.28;98487.63;4953553;29;20042;-83
2021/09/25 01:56:17;;;;;;;7.30;4.63;;;;;;;14.03;65.32;98485.19;4954087;29;20056;-85
2021/09/25 01:58:43;;;;;;;7.88;4.35;;;;;;;14.04;65.48;98486.00;4954163;29;20030;-84
2021/09/25 02:01:11;;;;;;;6.55;3.90;;;;;;;14.01;65.43;98478.38;4935967;29;20138;-84
2021/09/25 02:03:36;;;;;;;6.22;3.97;;;;;;;13.99;65.56;98485.03;4950440;29;20062;-84
2021/09/25 02:06:06;;;;;;;7.25;3.95;;;;;;;13.99;65.82;98486.94;4950955;29;20023;-84
2021/09/25 02:08:33;;;;;;;5.85;4.05;;;;;;;13.99;65.67;98478.69;4953607;29;20066;-82
2021/09/25 02:10:59;;;;;;;8.95;4.90;;;;;;;13.96;65.83;98484.81;4952780;29;20035;-85
2021/09/25 02:13:25;;;;;;;6.40;4.30;;;;;;;13.93;65.87;98483.53;4953050;29;20527;-85
2021/09/25 02:15:51;;;;;;;5.80;4.10;;;;;;;13.92;66.35;98481.91;4951339;29;20031;-85
2021/09/25 02:18:16;;;;;;;5.43;3.95;;;;;;;13.94;66.24;98478.81;4956332;29;20042;-82
2021/09/25 02:20:42;;;;;;;7.13;4.60;;;;;;;13.93;66.23;98480.78;4952186;29;20066;-85
2021/09/25 02:23:07;;;;;;;5.60;4.07;;;;;;;13.95;66.27;98484.03;4954273;29;20436;-82
2021/09/25 02:25:32;;;;;;;7.93;4.57;;;;;;;13.94;66.21;98487.91;4950584;29;20035;-82
2021/09/25 02:27:58;;;;;;;7.90;4.80;;;;;;;13.97;66.21;98489.22;4954205;29;20507;-84
2021/09/25 02:30:24;;;;;;;7.32;4.78;;;;;;;13.96;66.36;98477.38;4951029;29;20027;-85
2021/09/25 02:32:49;;;;;;;10.02;5.18;;;;;;;13.95;66.81;98484.03;4953035;29;20122;-82
2021/09/25 02:35:17;;;;;;;7.38;4.47;;;;;;;13.93;67.36;98489.03;4952153;29;20027;-86
2021/09/25 02:37:43;;;;;;;5.90;3.97;;;;;;;13.91;66.69;98483.03;4953514;29;20364;-83
2021/09/25 02:40:11;;;;;;;7.03;4.40;;;;;;;13.90;66.89;98486.09;4953300;29;20042;-86
2021/09/25 02:42:37;;;;;;;7.57;4.40;;;;;;;13.91;66.87;98496.81;4951395;29;20047;-84
2021/09/25 02:45:03;;;;;;;6.68;4.60;;;;;;;13.90;66.66;98484.16;4951593;29;20066;-84
2021/09/25 02:47:29;;;;;;;6.22;4.80;;;;;;;13.89;66.85;98493.56;4936567;29;20054;-85
2021/09/25 02:49:55;;;;;;;6.35;4.10;;;;;;;13.86;66.99;98496.94;4952035;29;20518;-84
2021/09/25 02:52:20;;;;;;;6.13;4.95;;;;;;;13.86;67.07;98507.19;4952845;29;20043;-84
2021/09/25 02:54:46;;;;;;;5.93;4.20;;;;;;;13.89;66.94;98501.84;4952353;29;20027;-85
2021/09/25 02:57:11;;;;;;;6.32;4.13;;;;;;;13.90;67.76;98502.63;4953431;29;21037;-85
2021/09/25 02:59:36;;;;;;;7.45;4.43;;;;;;;13.89;67.30;98507.34;4953031;29;20488;-84
2021/09/25 03:02:02;;;;;;;7.22;4.00;;;;;;;13.88;67.17;98500.22;4951048;29;20108;-82
2021/09/25 03:04:28;;;;;;;5.85;3.83;;;;;;;13.90;67.35;98506.22;4951865;28;20039;-85
2021/09/25 03:06:53;;;;;;;5.60;3.75;;;;;;;13.91;67.18;98507.03;4935422;29;20081;-83
2021/09/25 03:09:18;;;;;;;4.90;3.53;;;;;;;13.92;67.01;98506.72;4935454;29;20062;-83
2021/09/25 03:11:44;;;;;;;6.78;3.58;;;;;;;13.96;67.09;98507.72;4952153;29;20499;-83
2021/09/25 03:14:09;;;;;;;6.05;3.50;;;;;;;13.99;67.21;98506.25;4952788;29;20539;-80
2021/09/25 03:16:35;;;;;;;7.18;4.25;;;;;;;14.01;67.33;98516.97;4952035;29;20536;-83
2021/09/25 03:19:00;;;;;;;5.60;3.75;;;;;;;14.00;67.25;98513.38;4952723;29;20023;-83
2021/09/25 03:21:26;;;;;;;6.38;3.83;;;;;;;13.98;67.31;98508.22;4952124;29;20031;-83
2021/09/25 03:23:51;;;;;;;4.78;3.60;;;;;;;14.01;67.14;98508.72;4935515;29;20050;-81
2021/09/25 03:26:17;;;;;;;6.90;4.18;;;;;;;14.00;67.12;98516.16;4952587;29;20513;-80
2021/09/25 03:28:43;;;;;;;5.13;3.60;;;;;;;14.02;67.12;98507.56;4952600;29;20043;-82
2021/09/25 03:31:09;;;;;;;5.32;3.30;;;;;;;14.03;67.52;98506.44;4949557;29;20027;-83
2021/09/25 03:33:34;;;;;;;5.32;3.60;;;;;;;14.03;67.39;98504.47;4951154;29;20101;-81
2021/09/25 03:36:00;;;;;;;6.55;4.18;;;;;;;14.00;67.29;98499.59;4952243;29;20073;-82
2021/09/25 03:38:27;;;;;;;4.95;3.20;;;;;;;13.98;67.57;98502.69;4951460;29;20017;-82
2021/09/25 03:40:53;;;;;;;4.63;3.20;;;;;;;13.97;67.52;98506.59;4953022;29;20030;-80
2021/09/25 03:43:19;;;;;;;4.03;2.83;;;;;;;13.96;67.41;98507.72;4951384;29;20102;-80
2021/09/25 03:45:45;;;;;;;3.00;2.63;;;;;;;13.94;67.94;98503.63;4944933;29;20134;-80
2021/09/25 03:48:11;;;;;;;5.35;3.78;;;;;;;13.92;67.62;98505.88;4952421;29;20031;-82
2021/09/25 03:50:37;;;;;;;4.07;3.60;;;;;;;13.92;67.52;98500.38;4951062;29;20468;-82
2021/09/25 03:53:03;;;;;;;5.28;3.25;;;;;;;13.93;68.11;98502.81;4951712;29;20043;-81
2021/09/25 03:55:28;;;;;;;4.60;3.53;;;;;;;13.93;67.92;98502.81;4948538;29;20376;-83
2021/09/25 03:57:56;;;;;;;5.68;3.53;;;;;;;13.95;67.72;98499.75;4950662;29;20419;-83
2021/09/25 04:00:23;;;;;;;5.88;3.53;;;;;;;13.96;67.79;98510.47;4950802;29;20496;-81
2021/09/25 04:02:50;;;;;;;5.45;3.60;;;;;;;13.98;68.20;98510.13;4948731;29;20500;-83
2021/09/25 04:05:17;;;;;;;6.93;3.97;;;;;;;13.99;67.49;98514.53;4951415;29;20038;-81
2021/09/25 04:07:42;;;;;;;6.55;4.00;;;;;;;13.99;68.54;98503.50;4951701;29;20388;-83
2021/09/25 04:10:08;;;;;;;5.18;3.40;;;;;;;13.95;67.90;98508.84;4951989;29;20012;-82
2021/09/25 04:12:33;;;;;;;6.80;3.40;;;;;;;13.95;67.87;98505.25;4934804;29;20376;-83
2021/09/25 04:14:59;;;;;;;3.47;3.17;;;;;;;13.92;68.02;98512.22;4931342;29;20023;-81
2021/09/25 04:17:24;;;;;;;4.38;3.08;;;;;;;13.90;67.82;98503.47;4935553;29;20027;-81
2021/09/25 04:19:50;;;;;;;6.22;3.45;;;;;;;13.90;68.09;98511.72;4952227;29;20035;-82
2021/09/25 04:22:15;;;;;;;7.05;3.90;;;;;;;13.90;68.12;98511.72;4952063;29;20050;-83
2021/09/25 04:24:42;;;;;;;5.50;3.85;;;;;;;13.91;68.08;98509.78;4951948;29;20027;-83
2021/09/25 04:27:09;;;;;;;5.32;4.13;;;;;;;13.91;68.05;98516.13;4951722;29;20027;-83
2021/09/25 04:29:34;;;;;;;5.97;4.03;;;;;;;13.92;68.20;98515.00;4950291;29;20503;-82
2021/09/25 04:32:00;;;;;;;4.68;3.40;;;;;;;13.91;68.70;98510.59;4933757;29;20035;-84
2021/09/25 04:34:25;;;;;;;6.22;3.75;;;;;;;13.89;68.35;98521.13;4951009;29;20049;-84
2021/09/25 04:36:50;;;;;;;7.18;4.25;;;;;;;13.91;68.17;98527.16;4951512;29;20032;-84
2021/09/25 04:39:16;;;;;;;7.53;3.75;;;;;;;13.90;68.32;98531.03;4950771;29;20109;-84
2021/09/25 04:41:41;;;;;;;5.72;3.78;;;;;;;13.90;68.28;98527.44;4951200;29;20150;-82
2021/09/25 04:44:07;;;;;;;7.43;3.88;;;;;;;13.90;68.59;98530.19;4948924;29;20035;-83
2021/09/25 04:46:32;;;;;;;5.55;4.43;;;;;;;13.88;69.11;98536.03;4932653;29;20045;-82
2021/09/25 04:48:58;;;;;;;6.32;3.80;;;;;;;13.87;68.83;98545.44;4933806;29;21729;-83
2021/09/25 04:51:23;;;;;;;8.20;4.28;;;;;;;13.87;68.97;98539.09;4951060;29;20039;-81
2021/09/25 04:53:49;;;;;;;4.75;3.63;;;;;;;13.86;69.00;98538.31;4950253;29;20027;-81
2021/09/25 04:56:14;;;;;;;5.30;3.85;;;;;;;13.87;69.08;98544.63;4949942;29;20023;-85
2021/09/25 04:58:40;;;;;;;6.00;4.03;;;;;;;13.87;69.16;98545.44;4951358;29;20110;-82
2021/09/25 05:01:05;;;;;;;5.22;3.95;;;;;;;13.88;69.48;98547.06;4950380;29;20032;-84
2021/09/25 05:03:33;;;;;;;8.18;4.20;;;;;;;13.88;69.43;98549.00;4951545;29;20043;-84
2021/09/25 05:05:58;;;;;;;6.85;4.13;;;;;;;13.89;69.33;98545.94;4951468;29;20035;-81
2021/09/25 05:08:24;;;;;;;3.92;3.53;;;;;;;13.92;70.24;98550.00;4951717;29;20464;-82
2021/09/25 05:10:50;;;;;;;6.57;4.30;;;;;;;13.91;69.69;98551.97;4950739;29;20161;-84
2021/09/25 05:13:15;;;;;;;8.70;4.55;;;;;;;13.96;69.57;98551.81;4933752;29;20117;-83
2021/09/25 05:15:42;;;;;;;7.90;5.30;;;;;;;13.99;69.49;98555.88;4951176;29;20038;-84
2021/09/25 05:18:07;;;;;;;6.32;4.43;;;;;;;14.01;69.80;98547.31;4951504;29;20035;-82
2021/09/25 05:20:33;;;;;;;6.50;4.50;;;;;;;14.02;69.86;98549.75;4949005;29;20036;-82
2021/09/25 05:22:58;;;;;;;6.90;4.88;;;;;;;14.05;69.42;98551.06;4952557;29;20479;-81
2021/09/25 05:25:23;;;;;;;5.95;4.25;;;;;;;14.09;69.63;98552.03;4951599;29;20035;-83
2021/09/25 05:27:49;;;;;;;5.93;5.30;;;;;;;14.13;70.19;98547.50;4955544;28;20035;-84
2021/09/25 05:30:15;;;;;;;9.27;5.30;;;;;;;14.10;69.83;98548.13;4956460;29;20035;-84
2021/09/25 05:32:40;;;;;;;6.13;5.10;;;;;;;14.11;69.64;98542.31;4954384;29;20039;-85
2021/09/25 05:35:06;;;;;;;6.07;5.10;;;;;;;14.12;69.78;98549.47;4955698;29;20483;-84
2021/09/25 05:37:32;;;;;;;8.55;5.13;;;;;;;14.15;70.25;98550.75;4954516;29;20039;-84
2021/09/25 05:39:57;;;;;;;7.25;4.90;;;;;;;14.17;70.24;98550.47;4956302;29;20038;-84
2021/09/25 05:42:27;;;;;;;7.70;5.25;;;;;;;14.16;69.92;98555.16;4955885;29;20027;-84
2021/09/25 05:44:54;;;;;;;8.13;5.22;;;;;;;14.17;69.90;98556.78;4956209;29;20041;-84
2021/09/25 05:47:23;;;;;;;6.22;5.25;;;;;;;14.20;69.97;98561.66;4955600;29;20391;-84
2021/09/25 05:49:49;;;;;;;9.65;5.30;;;;;;;14.23;70.47;98554.72;4955758;29;20033;-84
2021/09/25 05:52:16;;;;;;;8.77;5.32;;;;;;;14.22;70.32;98553.88;4955489;29;20035;-84
2021/09/25 05:54:42;;;;;;;7.32;5.50;;;;;;;14.24;70.42;98561.84;4954623;29;20130;-83
2021/09/25 05:57:08;;;;;;;10.07;6.25;;;;;;;14.24;70.44;98559.91;4954946;29;20539;-83
2021/09/25 05:59:34;;;;;;;7.57;5.82;;;;;;;14.26;71.32;98565.91;4954821;29;20094;-83
2021/09/25 06:02:00;;;;;;;9.65;6.70;;;;;;;14.27;70.94;98573.06;4952086;29;20102;-84
2021/09/25 06:04:26;;;;;;;8.60;6.38;;;;;;;14.32;70.67;98565.78;4937669;29;20066;-84
2021/09/25 06:06:51;;;;;;;8.48;7.30;;;;;;;14.37;70.88;98568.38;4955398;29;20055;-84
2021/09/25 06:09:16;;;;;;;9.70;6.68;;;;;;;14.40;70.90;98560.28;4954999;29;20015;-82
2021/09/25 06:11:42;;;;;;;12.10;7.15;;;;;;;14.43;70.57;98572.63;4934946;29;20514;-83
2021/09/25 06:14:08;;;;;;;10.25;7.40;;;;;;;14.48;70.61;98563.38;4955344;29;20075;-83
2021/09/25 06:16:33;;;;;;;10.63;7.10;;;;;;;14.55;70.71;98572.81;4955272;29;20510;-84
2021/09/25 06:18:58;;;;;;;12.85;7.22;;;;;;;14.61;70.80;98567.16;4954403;29;20019;-84
2021/09/25 06:21:24;;;;;;;14.10;7.25;;;;;;;14.66;70.79;98570.59;4954979;29;20031;-84
2021/09/25 06:23:49;;;;;;;9.40;7.28;;;;;;;14.70;70.89;98570.78;4954858;29;20407;-85
2021/09/25 06:26:15;;;;;;;9.93;7.20;;;;;;;14.74;70.79;98572.56;4954565;29;20035;-79
2021/09/25 06:28:40;;;;;;;10.60;7.78;;;;;;;14.77;70.86;98575.84;4955551;29;20030;-79
2021/09/25 06:31:06;;;;;;;10.38;6.57;;;;;;;14.83;70.96;98574.56;4954193;29;20035;-79
2021/09/25 06:33:31;;;;;;;10.30;7.60;;;;;;;14.85;70.74;98577.81;4954424;29;20034;-79
2021/09/25 06:35:57;;;;;;;11.95;7.90;;;;;;;14.88;71.01;98580.72;4954993;29;20150;-79
2021/09/25 06:38:22;;;;;;;9.30;7.10;;;;;;;14.93;70.58;98576.19;4953374;28;20066;-79
2021/09/25 06:40:48;;;;;;;9.18;7.35;;;;;;;14.95;70.68;98577.50;4954826;29;20098;-82
2021/09/25 06:43:13;;;;;;;8.32;6.28;;;;;;;14.98;70.63;98574.09;4955157;29;20041;-79
2021/09/25 06:45:40;;;;;;;9.23;6.68;;;;;;;15.01;71.38;98575.38;4952402;29;20485;-79
2021/09/25 06:48:05;;;;;;;12.30;7.32;;;;;;;15.07;71.08;98573.31;4954719;29;20047;-79
2021/09/25 06:50:31;;;;;;;10.10;7.40;;;;;;;15.11;70.56;98572.31;4954720;29;20415;-82
2021/09/25 06:52:56;;;;;;;8.63;6.65;;;;;;;15.18;70.79;98578.19;4954668;29;20031;-80
2021/09/25 06:55:22;;;;;;;8.25;6.10;;;;;;;15.23;71.09;98587.44;4953770;29;20472;-79
2021/09/25 06:57:47;;;;;;;9.30;6.35;;;;;;;15.23;70.78;98573.63;4955788;29;20027;-78
2021/09/25 07:00:13;;;;;;;10.93;7.55;;;;;;;15.25;70.16;98585.97;4955724;29;20030;-79
2021/09/25 07:02:40;;;;;;;10.25;7.25;;;;;;;15.31;71.03;98592.97;4953936;29;20114;-78
2021/09/25 07:05:07;;;;;;;10.60;7.20;;;;;;;15.37;70.12;98584.53;4955190;29;20039;-79
2021/09/25 07:07:33;;;;;;;12.55;7.75;;;;;;;15.41;70.37;98591.03;4938012;29;20045;-80
2021/09/25 07:09:58;;;;;;;9.15;6.85;;;;;;;15.43;70.47;98595.09;4954059;29;20424;-80
2021/09/25 07:12:25;;;;;;;11.23;8.57;;;;;;;15.47;70.27;98598.03;4951938;29;20028;-79
2021/09/25 07:14:51;;;;;;;9.50;7.22;;;;;;;15.52;70.24;98594.28;4936777;29;20437;-79
2021/09/25 07:17:16;;;;;;;11.68;7.60;;;;;;;15.55;69.79;98599.94;4952093;29;20023;-79
2021/09/25 07:19:41;;;;;;;13.15;7.38;;;;;;;15.62;70.28;98596.72;4951833;29;20110;-77
2021/09/25 07:22:10;;;;;;;7.85;6.18;;;;;;;15.70;69.94;98598.63;4952563;29;20208;-77
2021/09/25 07:24:36;;;;;;;10.40;7.35;;;;;;;15.72;69.74;98601.88;4948539;29;20072;-77
2021/09/25 07:27:02;;;;;;;10.07;7.50;;;;;;;15.78;69.96;98597.00;4952580;29;20027;-77
2021/09/25 07:29:27;;;;;;;10.60;6.68;;;;;;;15.89;70.07;98601.09;4953383;29;20038;-79
2021/09/25 07:31:53;;;;;;;8.73;7.28;;;;;;;15.98;70.09;98608.56;4953201;29;20031;-80
2021/09/25 07:34:18;;;;;;;13.90;7.40;;;;;;;16.01;69.74;98605.13;4953515;29;20035;-79
2021/09/25 07:36:44;;;;;;;9.18;6.80;;;;;;;16.02;69.63;98609.50;4952909;29;20162;-77
2021/09/25 07:39:09;;;;;;;10.45;7.13;;;;;;;16.02;69.17;98610.34;4953476;29;20032;-77
2021/09/25 07:41:36;;;;;;;10.43;7.13;;;;;;;16.01;69.13;98611.50;4953501;29;20289;-78
2021/09/25 07:44:05;;;;;;;10.15;6.43;;;;;;;16.03;69.13;98616.69;4953283;29;20050;-79
2021/09/25 07:46:32;;;;;;;10.20;6.72;;;;;;;16.05;69.57;98617.16;4953220;29;20053;-78
2021/09/25 07:48:59;;;;;;;12.00;7.50;;;;;;;16.08;69.45;98613.75;4953705;28;20216;-78
2021/09/25 07:51:28;;;;;;;10.65;7.18;;;;;;;16.08;69.03;98624.81;4952684;29;20070;-78
2021/09/25 07:53:54;;;;;;;14.98;8.23;;;;;;;16.12;69.20;98624.94;4950726;28;20571;-77
2021/09/25 07:56:19;;;;;;;11.73;7.97;;;;;;;16.15;69.13;98621.53;4949821;29;20035;-76
2021/09/25 07:58:45;;;;;;;12.55;7.30;;;;;;;16.16;68.90;98609.31;4932789;29;20039;-83
2021/09/25 08:01:10;;;;;;;10.10;7.10;;;;;;;16.14;68.90;98617.13;4952124;29;20027;-79
2021/09/25 08:03:35;;;;;;;11.57;7.30;;;;;;;16.17;68.77;98622.00;4952677;29;20039;-79
2021/09/25 08:06:01;;;;;;;11.82;7.45;;;;;;;16.20;68.96;98615.81;4950384;29;20480;-79
2021/09/25 08:08:26;;;;;;;11.93;7.30;;;;;;;16.24;68.62;98621.53;4935531;29;20038;-79
2021/09/25 08:10:52;;;;;;;10.20;7.38;;;;;;;16.29;68.76;98624.91;4934616;29;20027;-78
2021/09/25 08:13:17;;;;;;;8.88;6.60;;;;;;;16.33;68.80;98622.28;4952500;29;20039;-79
2021/09/25 08:15:43;;;;;;;15.40;7.05;;;;;;;16.34;68.90;98618.38;4952499;29;20455;-79
2021/09/25 08:18:08;;;;;;;9.60;7.45;;;;;;;16.42;68.97;98631.38;4951806;29;20458;-77
2021/09/25 08:20:34;;;;;;;13.20;8.23;;;;;;;16.48;68.31;98623.72;4951627;29;20514;-80
2021/09/25 08:22:59;;;;;;;11.77;7.18;;;;;;;16.51;68.49;98626.63;4950222;29;20028;-78
2021/09/25 08:25:25;;;;;;;11.05;7.53;;;;;;;16.57;68.43;98634.75;4953092;29;20395;-78
2021/09/25 08:27:51;;;;;;;9.43;7.43;;;;;;;16.61;68.55;98630.19;4952959;29;20400;-78
2021/09/25 08:30:19;;;;;;;10.40;7.10;;;;;;;16.67;68.23;98632.41;4953173;29;20039;-80
2021/09/25 08:32:45;;;;;;;11.10;7.45;;;;;;;16.72;68.47;98636.16;4934559;29;20042;-78
2021/09/25 08:35:10;;;;;;;9.00;6.95;;;;;;;16.80;67.82;98638.06;4952887;29;20027;-79
2021/09/25 08:37:37;;;;;;;11.60;7.82;;;;;;;16.88;68.31;98631.69;4952800;29;20023;-81
2021/09/25 08:40:06;;;;;;;12.63;8.07;;;;;;;17.00;68.12;98638.47;4952836;29;20026;-79
2021/09/25 08:42:31;;;;;;;12.15;7.55;;;;;;;17.10;67.90;98627.00;4953221;29;20031;-79
2021/09/25 08:44:57;;;;;;;10.50;6.50;;;;;;;17.22;67.90;98635.41;4950705;29;20034;-79
2021/09/25 08:47:22;;;;;;;12.15;7.97;;;;;;;17.30;67.53;98636.50;4950924;29;20475;-79
2021/09/25 08:49:48;;;;;;;11.95;6.93;;;;;;;17.41;67.65;98645.22;4933774;29;20467;-78
2021/09/25 08:52:14;;;;;;;12.52;8.20;;;;;;;17.47;67.14;98635.56;4935434;29;20122;-79
2021/09/25 08:54:40;;;;;;;14.18;8.40;;;;;;;17.54;67.19;98646.09;4951283;29;20031;-79
2021/09/25 08:57:07;;;;;;;12.93;8.57;;;;;;;17.68;67.13;98637.53;4951095;29;20476;-79
2021/09/25 08:59:33;;;;;;;14.63;8.30;;;;;;;17.82;67.10;98648.31;4952562;29;20310;-77
2021/09/25 09:02:10;;;;;;;18.95;11.35;;;;;;;17.92;66.92;98644.31;4954886;28;20031;-78
2021/09/25 09:04:49;;;;;;;12.75;8.55;;;;;;;18.08;66.61;98645.34;4957090;29;20137;-81
2021/09/25 09:07:19;;;;;;;12.38;8.93;;;;;;;18.19;66.21;98642.09;4953450;29;20093;-77
2021/09/25 09:09:46;;;;;;;11.18;8.80;;;;;;;18.25;65.66;98643.53;4956870;29;20110;-78
2021/09/25 09:12:12;;;;;;;17.85;12.55;;;;;;;18.29;65.44;98644.47;4955130;29;20035;-77
2021/09/25 09:14:43;;;;;;;13.07;9.77;;;;;;;18.32;65.13;98645.75;4955211;29;20166;-80
2021/09/25 09:17:08;;;;;;;16.67;12.57;;;;;;;18.36;65.35;98647.50;4955876;29;21837;-78
2021/09/25 09:19:37;;;;;;;16.50;11.43;;;;;;;18.43;65.10;98647.75;4931837;29;20038;-77
2021/09/25 09:22:05;;;;;;;17.87;11.83;;;;;;;18.50;65.00;98649.94;4954741;29;20128;-78
2021/09/25 09:24:41;;;;;;;17.45;12.52;;;;;;;18.62;65.20;98640.81;4954700;29;20379;-76
2021/09/25 09:27:17;;;;;;;13.13;9.05;;;;;;;18.68;64.16;98639.41;4954796;29;20031;-77
2021/09/25 09:29:43;;;;;;;18.13;9.93;;;;;;;18.72;64.42;98643.13;4952023;29;20494;-76
2021/09/25 09:32:11;;;;;;;12.38;8.63;;;;;;;18.84;64.00;98647.09;4946568;28;20039;-75
2021/09/25 09:34:39;;;;;;;11.38;8.30;;;;;;;18.89;63.79;98646.84;4953805;29;20027;-75
2021/09/25 09:37:17;;;;;;;13.48;8.50;;;;;;;18.90;64.06;98652.06;4954219;29;20039;-77
2021/09/25 09:39:44;;;;;;;16.73;10.30;;;;;;;18.96;63.88;98649.06;4954967;29;20035;-74
2021/09/25 09:42:10;;;;;;;15.10;10.02;;;;;;;19.07;64.30;98649.41;4954622;29;20058;-74
2021/09/25 09:44:38;;;;;;;12.05;8.93;;;;;;;19.15;63.99;98652.09;4937542;29;20031;-78
2021/09/25 09:47:08;;;;;;;20.98;13.98;;;;;;;19.26;63.93;98657.97;4954359;29;20163;-75
2021/09/25 09:49:38;;;;;;;19.85;13.25;;;;;;;19.38;63.86;98651.56;4936658;29;20035;-75
2021/09/25 09:52:09;;;;;;;14.15;9.73;;;;;;;19.52;63.98;98659.53;4954160;29;20790;-76
2021/09/25 09:54:39;;;;;;;17.77;13.35;;;;;;;19.62;63.15;98652.66;4953501;29;20026;-75
2021/09/25 09:57:19;;;;;;;13.23;8.70;;;;;;;19.65;63.19;98657.53;4953851;29;20035;-76
2021/09/25 09:59:49;;;;;;;13.10;8.55;;;;;;;19.72;62.48;98654.16;4952999;29;20097;-77
2021/09/25 10:02:15;;;;;;;13.50;8.32;;;;;;;19.72;62.61;98663.31;4953376;29;20038;-75
2021/09/25 10:04:40;;;;;;;12.05;8.70;;;;;;;19.74;62.58;98663.75;4954901;29;20031;-76
2021/09/25 10:07:07;;;;;;;10.57;8.00;;;;;;;19.76;62.32;98667.00;4954571;29;20042;-76
2021/09/25 10:09:33;;;;;;;13.63;8.32;;;;;;;;;;4954223;29;20035;-77
2021/09/25 10:12:01;;;;;;;10.20;6.80;;;;;;;19.85;61.39;98655.72;4952303;28;20039;-78
2021/09/25 10:14:32;;;;;;;10.43;8.30;;;;;;;19.88;61.12;98657.00;4945195;29;20070;-77
2021/09/25 10:17:01;;;;;;;13.25;9.40;;;;;;;19.93;61.78;98663.16;4952948;29;20031;-76
2021/09/25 10:19:31;;;;;;;12.70;8.80;;;;;;;20.12;62.38;98652.50;4952772;29;20027;-76
2021/09/25 10:22:19;;;;;;;10.70;8.32;;;;;;;20.28;61.95;98656.16;4948936;29;20035;-76
2021/09/25 10:24:54;;;;;;;8.82;6.72;;;;;;;20.37;61.40;98659.59;4953679;29;20082;-75
2021/09/25 10:27:21;;;;;;;10.52;7.18;;;;;;;20.38;60.42;98650.03;4935541;29;20583;-75
2021/09/25 10:29:49;;;;;;;13.15;8.00;;;;;;;20.38;60.34;98649.25;4934326;29;20462;-76
2021/09/25 10:32:17;;;;;;;12.57;6.97;;;;;;;20.50;60.33;98651.94;4952711;29;20039;-77
2021/09/25 10:35:18;;;;;;;15.75;7.88;;;;;;;20.68;59.76;98648.78;4951333;29;20153;-77
2021/09/25 10:37:49;;;;;;;15.20;7.82;;;;;;;20.75;59.53;98651.78;4938315;29;20063;-75
2021/09/25 10:40:23;;;;;;;10.93;6.60;;;;;;;20.75;58.93;98650.97;4951900;29;20078;-75
2021/09/25 10:43:28;;;;;;;15.35;6.80;;;;;;;20.73;59.12;98648.53;4952439;29;20023;-76
2021/09/25 10:45:55;;;;;;;8.10;5.47;;;;;;;20.74;58.91;98647.38;4950505;29;20039;-75
2021/09/25 10:48:23;;;;;;;10.57;6.15;;;;;;;20.67;58.96;98645.22;4952620;29;20027;-75
2021/09/25 10:50:54;;;;;;;8.23;5.50;;;;;;;20.56;58.52;98648.91;4952066;29;20112;-75
2021/09/25 10:53:23;;;;;;;10.00;6.22;;;;;;;20.47;59.00;98643.50;4953589;29;20706;-75
2021/09/25 10:55:51;;;;;;;8.20;5.38;;;;;;;20.37;58.97;98650.41;4953552;29;20102;-75
2021/09/25 10:58:25;;;;;;;10.40;6.10;;;;;;;20.33;59.51;98650.31;4952878;29;20566;-75
2021/09/25 11:00:59;;;;;;;8.20;5.80;;;;;;;20.31;59.69;98643.47;4951976;29;20476;-75
2021/09/25 11:03:39;;;;;;;9.40;6.50;;;;;;;20.30;59.39;98636.28;4953069;29;20046;-76
2021/09/25 11:06:29;;;;;;;11.20;6.45;;;;;;;20.31;59.30;98643.47;4953977;29;20039;-77
2021/09/25 11:08:57;;;;;;;10.52;6.65;;;;;;;20.35;59.32;98644.38;4954743;29;20019;-78
2021/09/25 11:11:35;;;;;;;10.82;7.40;;;;;;;20.54;59.79;98646.47;4953556;29;20054;-74
2021/09/25 11:14:00;;;;;;;16.83;10.27;;;;;;;20.68;58.76;98643.22;4952007;29;20066;-78
2021/09/25 11:16:45;;;;;;;8.07;6.88;;;;;;;20.78;58.49;98639.13;4952659;29;20062;-74
2021/09/25 11:19:22;;;;;;;8.55;6.30;;;;;;;20.76;58.42;98641.44;4953056;29;20118;-77
2021/09/25 11:22:05;;;;;;;8.10;6.07;;;;;;;20.84;58.33;98634.88;4952286;29;20035;-75
2021/09/25 11:24:42;;;;;;;7.45;5.82;;;;;;;20.93;58.48;98634.72;4935230;29;20118;-75
2021/09/25 11:27:16;;;;;;;8.57;5.13;;;;;;;20.96;58.48;98629.22;4952909;29;20360;-75
2021/09/25 11:29:54;;;;;;;9.07;5.13;;;;;;;21.12;58.00;98631.97;4953232;29;20501;-68
2021/09/25 11:32:30;;;;;;;8.13;5.25;;;;;;;21.23;58.28;98625.84;4951968;29;20114;-65